createdAt,value
2023-05-08T00:02:22.237Z,6.58
2023-05-08T00:04:48.898Z,6.46
2023-05-08T00:07:15.539Z,6.42
2023-05-08T00:09:41.913Z,6.31
2023-05-08T00:12:08.370Z,6.29
2023-05-08T00:14:34.854Z,6.24
2023-05-08T00:17:02.271Z,6.15
2023-05-08T00:19:29.900Z,6.04
2023-05-08T00:21:56.338Z,5.98
2023-05-08T00:24:22.836Z,5.99
2023-05-08T00:26:49.347Z,5.93
2023-05-08T00:29:15.927Z,5.88
2023-05-08T00:31:42.416Z,5.90
2023-05-08T00:34:08.853Z,5.89
2023-05-08T00:36:35.522Z,5.85
2023-05-08T00:39:02.042Z,5.92
2023-05-08T00:41:28.573Z,5.95
2023-05-08T00:43:54.968Z,5.92
2023-05-08T00:46:21.614Z,6.04
2023-05-08T00:48:48.286Z,6.02
2023-05-08T00:51:15.383Z,5.95
2023-05-08T00:53:43.179Z,5.80
2023-05-08T00:56:11.987Z,5.84
2023-05-08T00:58:38.695Z,5.84
2023-05-08T01:01:05.464Z,5.73
2023-05-08T01:03:33.943Z,5.65
2023-05-08T01:06:02.177Z,5.67
2023-05-08T01:08:28.968Z,5.59
2023-05-08T01:11:11.500Z,5.58
2023-05-08T01:13:56.899Z,5.57
2023-05-08T01:16:31.823Z,5.63
2023-05-08T01:19:23.825Z,5.55
2023-05-08T01:22:02.136Z,5.52
2023-05-08T01:24:56.842Z,5.47
2023-05-08T01:27:42.239Z,5.42
2023-05-08T01:30:43.481Z,5.52
2023-05-08T01:33:27.258Z,5.60
2023-05-08T01:35:59.493Z,5.60
2023-05-08T01:38:51.489Z,5.64
2023-05-08T01:41:26.088Z,5.66
2023-05-08T01:44:20.317Z,5.72
2023-05-08T01:46:51.082Z,5.82
2023-05-08T01:49:23.310Z,5.74
2023-05-08T01:51:56.978Z,5.69
2023-05-08T01:54:26.073Z,5.72
2023-05-08T01:56:55.381Z,5.83
2023-05-08T01:59:23.770Z,5.71
2023-05-08T02:01:56.881Z,5.75
2023-05-08T02:04:24.175Z,5.70
2023-05-08T02:06:52.024Z,5.76
2023-05-08T02:09:21.381Z,5.90
2023-05-08T02:11:49.326Z,5.83
2023-05-08T02:14:18.714Z,5.78
2023-05-08T02:16:46.299Z,5.79
2023-05-08T02:19:14.171Z,5.65
2023-05-08T02:21:41.226Z,5.68
2023-05-08T02:24:08.293Z,5.58
2023-05-08T02:26:35.755Z,5.51
2023-05-08T02:29:03.144Z,5.50
2023-05-08T02:31:30.142Z,5.47
2023-05-08T02:33:57.420Z,5.36
2023-05-08T02:36:24.440Z,5.32
2023-05-08T02:38:52.931Z,5.21
2023-05-08T02:41:22.243Z,5.14
2023-05-08T02:43:49.783Z,5.22
2023-05-08T02:46:19.753Z,5.13
2023-05-08T02:49:03.827Z,5.11
2023-05-08T02:51:48.757Z,5.11
2023-05-08T02:54:25.379Z,5.22
2023-05-08T02:57:14.106Z,5.29
2023-05-08T02:59:45.480Z,5.19
2023-05-08T03:02:42.545Z,5.18
2023-05-08T03:05:16.455Z,5.16
2023-05-08T03:07:45.081Z,4.93
2023-05-08T03:10:16.578Z,4.90
2023-05-08T03:12:46.930Z,4.95
2023-05-08T03:15:24.157Z,4.90
2023-05-08T03:17:54.967Z,4.85
2023-05-08T03:20:22.912Z,4.78
2023-05-08T03:22:50.844Z,4.84
2023-05-08T03:25:19.465Z,4.81
2023-05-08T03:27:46.379Z,4.81
2023-05-08T03:30:13.429Z,4.87
2023-05-08T03:32:41.430Z,4.89
2023-05-08T03:35:09.485Z,4.87
2023-05-08T03:37:36.046Z,4.91
2023-05-08T03:40:02.463Z,4.91
2023-05-08T03:42:31.088Z,5.02
2023-05-08T03:44:57.820Z,4.95
2023-05-08T03:47:26.153Z,4.98
2023-05-08T03:49:53.577Z,5.09
2023-05-08T03:52:20.052Z,5.08
2023-05-08T03:54:46.760Z,5.13
2023-05-08T03:57:13.492Z,5.12
2023-05-08T03:59:53.113Z,5.09
2023-05-08T04:02:42.487Z,5.13
2023-05-08T04:05:20.626Z,5.09
2023-05-08T04:07:53.759Z,5.18
2023-05-08T04:10:32.702Z,5.26
2023-05-08T04:13:05.702Z,5.30
2023-05-08T04:15:35.260Z,5.32
2023-05-08T04:18:12.713Z,5.48
2023-05-08T04:20:43.237Z,5.47
2023-05-08T04:23:14.566Z,5.55
2023-05-08T04:25:42.754Z,5.63
2023-05-08T04:28:10.286Z,5.59
2023-05-08T04:30:36.897Z,5.64
2023-05-08T04:33:06.302Z,5.71
2023-05-08T04:35:34.002Z,5.78
2023-05-08T04:38:01.198Z,5.82
2023-05-08T04:40:27.814Z,5.99
2023-05-08T04:42:55.379Z,6.05
2023-05-08T04:45:22.116Z,6.12
2023-05-08T04:47:49.582Z,6.19
2023-05-08T04:50:16.022Z,6.27
2023-05-08T04:52:43.081Z,6.37
2023-05-08T04:55:10.256Z,6.47
2023-05-08T04:57:36.820Z,6.45
2023-05-08T05:00:06.070Z,6.59
2023-05-08T05:02:32.729Z,6.72
2023-05-08T05:05:01.441Z,6.77
2023-05-08T05:07:28.085Z,6.86
2023-05-08T05:09:54.647Z,6.89
2023-05-08T05:12:21.285Z,7.19
2023-05-08T05:14:47.685Z,7.57
2023-05-08T05:17:14.338Z,8.12
2023-05-08T05:19:40.728Z,8.43
2023-05-08T05:22:08.162Z,9.15
2023-05-08T05:24:36.109Z,9.39
2023-05-08T05:27:02.877Z,9.75
2023-05-08T05:29:30.282Z,10.05
2023-05-08T05:31:56.895Z,9.96
2023-05-08T05:34:23.461Z,9.41
2023-05-08T05:36:49.962Z,10.01
2023-05-08T05:39:16.412Z,9.89
2023-05-08T05:41:44.316Z,10.60
2023-05-08T05:44:11.314Z,10.92
2023-05-08T05:46:37.790Z,11.41
2023-05-08T05:49:04.219Z,12.71
2023-05-08T05:51:30.645Z,11.97
2023-05-08T05:53:57.213Z,12.23
2023-05-08T05:56:23.700Z,12.24
2023-05-08T05:58:50.345Z,12.16
2023-05-08T06:01:17.173Z,12.00
2023-05-08T06:03:44.163Z,11.73
2023-05-08T06:06:11.174Z,11.28
2023-05-08T06:08:37.714Z,11.44
2023-05-08T06:11:04.334Z,12.05
2023-05-08T06:13:31.529Z,13.17
2023-05-08T06:15:58.343Z,13.97
2023-05-08T06:18:24.833Z,14.10
2023-05-08T06:21:00.393Z,13.59
2023-05-08T06:23:27.114Z,13.32
2023-05-08T06:25:54.165Z,14.06
2023-05-08T06:28:22.456Z,13.96
2023-05-08T06:30:48.909Z,13.48
2023-05-08T06:33:15.354Z,13.79
2023-05-08T06:35:41.721Z,13.48
2023-05-08T06:38:08.362Z,14.15
2023-05-08T06:40:34.848Z,13.82
2023-05-08T06:43:01.405Z,15.28
2023-05-08T06:45:27.926Z,16.61
2023-05-08T06:47:54.475Z,15.78
2023-05-08T06:50:21.105Z,14.91
2023-05-08T06:52:47.591Z,15.03
2023-05-08T06:55:15.105Z,15.79
2023-05-08T06:57:41.903Z,15.15
2023-05-08T07:00:09.773Z,15.15
2023-05-08T07:02:36.244Z,15.25
2023-05-08T07:05:03.417Z,16.72
2023-05-08T07:07:30.501Z,16.22
2023-05-08T07:09:57.039Z,16.34
2023-05-08T07:12:23.700Z,16.60
2023-05-08T07:14:50.351Z,16.89
2023-05-08T07:17:16.827Z,16.95
2023-05-08T07:19:43.294Z,15.16
2023-05-08T07:22:09.713Z,15.90
2023-05-08T07:24:36.429Z,16.61
2023-05-08T07:27:03.167Z,16.10
2023-05-08T07:29:29.684Z,16.28
2023-05-08T07:31:56.331Z,16.25
2023-05-08T07:34:22.862Z,16.98
2023-05-08T07:36:49.986Z,16.45
2023-05-08T07:39:16.526Z,17.11
2023-05-08T07:41:43.236Z,18.21
2023-05-08T07:44:09.926Z,16.35
2023-05-08T07:46:37.262Z,16.17
2023-05-08T07:49:03.917Z,16.97
2023-05-08T07:51:30.358Z,17.45
2023-05-08T07:53:56.826Z,17.85
2023-05-08T07:56:23.769Z,18.57
2023-05-08T07:58:50.382Z,18.97
2023-05-08T08:01:18.287Z,18.30
2023-05-08T08:03:46.078Z,18.49
2023-05-08T08:06:12.790Z,18.46
2023-05-08T08:08:39.462Z,18.94
2023-05-08T08:11:07.090Z,19.67
2023-05-08T08:13:33.725Z,19.12
2023-05-08T08:16:01.634Z,20.36
2023-05-08T08:18:28.560Z,20.51
2023-05-08T08:20:55.252Z,20.02
2023-05-08T08:23:21.913Z,19.30
2023-05-08T08:25:48.591Z,19.61
2023-05-08T08:28:15.097Z,18.97
2023-05-08T08:30:41.835Z,19.13
2023-05-08T08:33:08.460Z,19.48
2023-05-08T08:35:34.980Z,18.98
2023-05-08T08:38:01.575Z,20.98
2023-05-08T08:40:28.501Z,21.53
2023-05-08T08:42:55.839Z,20.43
2023-05-08T08:45:22.487Z,20.84
2023-05-08T08:47:52.249Z,22.71
2023-05-08T08:50:19.626Z,22.46
2023-05-08T08:53:02.950Z,21.68
2023-05-08T08:55:29.934Z,22.56
2023-05-08T08:58:18.104Z,21.74
2023-05-08T09:00:44.629Z,20.22
2023-05-08T09:03:11.182Z,20.03
2023-05-08T09:05:38.648Z,18.97
2023-05-08T09:08:06.058Z,19.04
2023-05-08T09:10:32.893Z,19.64
2023-05-08T09:12:59.523Z,19.66
2023-05-08T09:15:25.989Z,20.31
2023-05-08T09:17:52.410Z,20.51
2023-05-08T09:20:19.183Z,20.28
2023-05-08T09:22:46.008Z,19.71
2023-05-08T09:25:12.893Z,20.67
2023-05-08T09:27:39.900Z,20.61
2023-05-08T09:30:08.570Z,20.82
2023-05-08T09:32:36.914Z,21.38
2023-05-08T09:35:04.063Z,20.69
2023-05-08T09:37:30.960Z,20.21
2023-05-08T09:40:20.908Z,20.81
2023-05-08T09:42:48.979Z,19.87
2023-05-08T09:45:32.311Z,21.22
2023-05-08T09:47:59.172Z,22.80
2023-05-08T09:50:25.858Z,23.40
2023-05-08T09:52:52.737Z,23.25
2023-05-08T09:55:19.323Z,23.63
2023-05-08T09:57:59.169Z,22.43
2023-05-08T10:00:27.299Z,21.68
2023-05-08T10:03:02.529Z,22.06
2023-05-08T10:05:31.165Z,21.87
2023-05-08T10:07:59.425Z,21.31
2023-05-08T10:10:27.941Z,20.60
2023-05-08T10:12:56.325Z,21.90
2023-05-08T10:15:28.836Z,22.36
2023-05-08T10:18:08.723Z,21.83
2023-05-08T10:20:42.377Z,22.86
2023-05-08T10:23:14.085Z,23.00
2023-05-08T10:25:45.179Z,22.74
2023-05-08T10:28:31.484Z,23.21
2023-05-08T10:31:01.604Z,23.98
2023-05-08T10:33:33.431Z,21.89
2023-05-08T10:36:00.656Z,23.17
2023-05-08T10:38:27.585Z,23.20
2023-05-08T10:40:57.909Z,22.59
2023-05-08T10:43:25.644Z,22.45
2023-05-08T10:45:53.098Z,23.88
2023-05-08T10:48:38.092Z,24.76
2023-05-08T10:51:15.327Z,24.80
2023-05-08T10:53:59.588Z,23.16
2023-05-08T10:56:27.299Z,21.67
2023-05-08T10:58:58.242Z,22.93
2023-05-08T11:01:26.065Z,23.59
2023-05-08T11:03:52.902Z,23.69
2023-05-08T11:06:43.777Z,21.67
2023-05-08T11:09:14.999Z,21.65
2023-05-08T11:11:45.711Z,21.75
2023-05-08T11:14:14.265Z,20.87
2023-05-08T11:17:03.476Z,21.10
2023-05-08T11:19:30.261Z,21.44
2023-05-08T11:22:16.669Z,23.02
2023-05-08T11:24:54.820Z,22.47
2023-05-08T11:27:49.181Z,20.67
2023-05-08T11:30:20.389Z,20.92
2023-05-08T11:33:16.691Z,21.92
2023-05-08T11:35:52.077Z,23.27
2023-05-08T11:38:24.523Z,22.35
2023-05-08T11:41:00.264Z,20.90
2023-05-08T11:43:34.016Z,20.43
2023-05-08T11:46:04.106Z,20.66
2023-05-08T11:48:34.155Z,20.38
2023-05-08T11:51:01.513Z,20.61
2023-05-08T11:53:31.573Z,20.78
2023-05-08T11:55:59.107Z,21.36
2023-05-08T11:58:25.994Z,20.56
2023-05-08T12:00:52.607Z,21.11
2023-05-08T12:03:21.979Z,22.76
2023-05-08T12:05:50.216Z,22.69
2023-05-08T12:08:17.970Z,22.71
2023-05-08T12:10:55.406Z,22.36
2023-05-08T12:13:24.325Z,22.11
2023-05-08T12:15:55.731Z,23.26
2023-05-08T12:18:23.223Z,22.82
2023-05-08T12:20:54.163Z,23.86
2023-05-08T12:23:20.914Z,22.90
2023-05-08T12:25:47.518Z,22.86
2023-05-08T12:28:14.020Z,23.16
2023-05-08T12:30:41.051Z,22.22
2023-05-08T12:33:08.436Z,22.45
2023-05-08T12:35:35.021Z,22.81
2023-05-08T12:38:03.446Z,22.46
2023-05-08T12:40:33.099Z,22.22
2023-05-08T12:43:03.993Z,21.28
2023-05-08T12:45:33.734Z,22.78
2023-05-08T12:48:05.697Z,23.05
2023-05-08T12:50:37.200Z,23.64
2023-05-08T12:53:05.486Z,23.34
2023-05-08T12:55:33.991Z,22.58
2023-05-08T12:58:05.290Z,22.49
2023-05-08T13:00:54.134Z,23.11
2023-05-08T13:03:26.696Z,23.71
2023-05-08T13:05:55.213Z,23.42
2023-05-08T13:08:30.299Z,23.76
2023-05-08T13:10:57.339Z,21.61
2023-05-08T13:13:26.614Z,20.83
2023-05-08T13:15:54.990Z,21.58
2023-05-08T13:18:24.848Z,21.47
2023-05-08T13:20:51.547Z,21.23
2023-05-08T13:23:18.063Z,21.98
2023-05-08T13:25:44.668Z,22.21
2023-05-08T13:28:11.669Z,22.42
2023-05-08T13:30:38.395Z,21.59
2023-05-08T13:33:05.350Z,22.06
2023-05-08T13:35:32.403Z,22.29
2023-05-08T13:37:59.134Z,22.15
2023-05-08T13:40:26.284Z,21.96
2023-05-08T13:42:52.933Z,22.18
2023-05-08T13:45:19.438Z,21.66
2023-05-08T13:47:47.551Z,21.95
2023-05-08T13:50:15.843Z,21.34
2023-05-08T13:52:42.481Z,21.23
2023-05-08T13:55:10.948Z,21.57
2023-05-08T13:57:38.026Z,21.32
2023-05-08T14:00:05.861Z,21.41
2023-05-08T14:02:32.638Z,20.95
2023-05-08T14:04:59.116Z,20.48
2023-05-08T14:07:26.486Z,20.50
2023-05-08T14:09:53.314Z,20.48
2023-05-08T14:12:19.793Z,21.19
2023-05-08T14:14:46.324Z,21.33
2023-05-08T14:17:12.774Z,21.49
2023-05-08T14:19:39.620Z,22.07
2023-05-08T14:22:06.986Z,21.36
2023-05-08T14:24:33.903Z,20.40
2023-05-08T14:27:01.959Z,20.66
2023-05-08T14:29:28.446Z,20.25
2023-05-08T14:31:55.126Z,20.87
2023-05-08T14:34:21.945Z,20.53
2023-05-08T14:36:48.324Z,20.65
2023-05-08T14:39:14.814Z,20.69
2023-05-08T14:41:48.075Z,20.68
2023-05-08T14:44:26.101Z,20.20
2023-05-08T14:46:52.491Z,20.28
2023-05-08T14:49:25.410Z,20.31
2023-05-08T14:51:59.837Z,20.53
2023-05-08T14:54:26.448Z,20.49
2023-05-08T14:56:53.065Z,20.87
2023-05-08T14:59:19.567Z,20.95
2023-05-08T15:01:46.016Z,20.84
2023-05-08T15:04:12.775Z,20.26
2023-05-08T15:06:40.426Z,20.51
2023-05-08T15:09:08.551Z,20.72
2023-05-08T15:11:36.151Z,20.98
2023-05-08T15:14:04.069Z,20.89
2023-05-08T15:16:31.206Z,20.15
2023-05-08T15:18:57.689Z,20.24
2023-05-08T15:21:26.640Z,20.05
2023-05-08T15:23:54.781Z,20.38
2023-05-08T15:26:22.126Z,20.00
2023-05-08T15:28:49.004Z,19.85
2023-05-08T15:31:15.914Z,19.49
2023-05-08T15:33:44.924Z,19.41
2023-05-08T15:36:13.116Z,19.83
2023-05-08T15:38:40.955Z,19.83
2023-05-08T15:41:07.676Z,19.32
2023-05-08T15:43:34.106Z,19.78
2023-05-08T15:46:00.707Z,19.66
2023-05-08T15:48:27.278Z,19.63
2023-05-08T15:50:53.775Z,19.78
2023-05-08T15:53:20.765Z,19.52
2023-05-08T15:55:47.202Z,19.50
2023-05-08T15:58:13.572Z,19.55
2023-05-08T16:00:44.779Z,19.14
2023-05-08T16:03:12.337Z,18.95
2023-05-08T16:05:39.525Z,18.95
2023-05-08T16:08:07.552Z,19.05
2023-05-08T16:10:34.361Z,19.43
2023-05-08T16:13:00.903Z,18.85
2023-05-08T16:15:27.412Z,18.89
2023-05-08T16:17:53.907Z,19.11
2023-05-08T16:20:20.951Z,18.68
2023-05-08T16:22:47.385Z,18.61
2023-05-08T16:25:14.246Z,18.28
2023-05-08T16:27:40.968Z,18.63
2023-05-08T16:30:08.018Z,18.51
2023-05-08T16:32:34.563Z,18.20
2023-05-08T16:35:01.137Z,18.29
2023-05-08T16:37:27.742Z,18.58
2023-05-08T16:39:54.273Z,18.35
2023-05-08T16:42:20.905Z,18.12
2023-05-08T16:44:47.508Z,17.62
2023-05-08T16:47:14.606Z,17.62
2023-05-08T16:49:41.259Z,17.82
2023-05-08T16:52:07.758Z,17.58
2023-05-08T16:54:34.312Z,17.59
2023-05-08T16:57:01.387Z,17.77
2023-05-08T16:59:28.010Z,17.76
2023-05-08T17:01:54.512Z,17.60
2023-05-08T17:04:21.073Z,17.79
2023-05-08T17:06:47.649Z,17.63
2023-05-08T17:09:14.064Z,17.13
2023-05-08T17:11:40.606Z,16.92
2023-05-08T17:14:07.144Z,16.92
2023-05-08T17:16:33.639Z,17.13
2023-05-08T17:19:00.564Z,16.84
2023-05-08T17:21:27.055Z,16.77
2023-05-08T17:23:53.716Z,16.52
2023-05-08T17:26:21.713Z,16.45
2023-05-08T17:28:48.235Z,16.25
2023-05-08T17:31:15.871Z,16.17
2023-05-08T17:33:42.522Z,16.01
2023-05-08T17:36:09.284Z,15.89
2023-05-08T17:38:38.334Z,15.85
2023-05-08T17:41:04.881Z,15.69
2023-05-08T17:43:31.520Z,15.60
2023-05-08T17:45:58.161Z,15.56
2023-05-08T17:48:24.844Z,15.36
2023-05-08T17:50:51.243Z,15.26
2023-05-08T17:53:17.771Z,15.19
2023-05-08T17:55:44.427Z,15.04
2023-05-08T17:58:11.015Z,14.97
2023-05-08T18:00:37.831Z,14.86
2023-05-08T18:03:04.931Z,14.83
2023-05-08T18:05:31.856Z,14.69
2023-05-08T18:07:59.389Z,14.60
2023-05-08T18:10:25.907Z,14.58
2023-05-08T18:12:52.425Z,14.45
2023-05-08T18:15:18.856Z,14.35
2023-05-08T18:17:45.249Z,14.28
2023-05-08T18:20:12.447Z,14.25
2023-05-08T18:22:39.330Z,14.18
2023-05-08T18:25:06.318Z,14.07
2023-05-08T18:27:34.360Z,13.98
2023-05-08T18:30:00.975Z,13.90
2023-05-08T18:32:27.427Z,13.85
2023-05-08T18:34:54.204Z,13.75
2023-05-08T18:37:20.682Z,13.66
2023-05-08T18:39:47.440Z,13.53
2023-05-08T18:42:14.039Z,13.49
2023-05-08T18:44:40.996Z,13.49
2023-05-08T18:47:07.552Z,13.40
2023-05-08T18:49:34.046Z,13.35
2023-05-08T18:52:00.586Z,13.31
2023-05-08T18:54:27.148Z,13.29
2023-05-08T18:56:54.222Z,13.20
2023-05-08T18:59:21.671Z,13.03
2023-05-08T19:01:49.982Z,13.10
2023-05-08T19:04:16.849Z,12.98
2023-05-08T19:06:43.453Z,12.96
2023-05-08T19:09:10.114Z,12.77
2023-05-08T19:11:36.815Z,12.74
2023-05-08T19:14:03.456Z,12.82
2023-05-08T19:16:30.004Z,12.71
2023-05-08T19:18:56.621Z,12.73
2023-05-08T19:21:23.792Z,12.58
2023-05-08T19:23:50.665Z,12.52
2023-05-08T19:26:18.112Z,12.45
2023-05-08T19:28:44.593Z,12.43
2023-05-08T19:31:11.079Z,12.38
2023-05-08T19:33:37.605Z,12.22
2023-05-08T19:36:04.112Z,12.18
2023-05-08T19:38:31.039Z,12.25
2023-05-08T19:40:58.115Z,12.24
2023-05-08T19:43:27.584Z,12.26
2023-05-08T19:45:55.259Z,12.31
2023-05-08T19:48:21.962Z,12.11
2023-05-08T19:50:48.608Z,12.19
2023-05-08T19:53:15.206Z,12.18
2023-05-08T19:55:41.723Z,12.06
2023-05-08T19:58:08.156Z,11.98
2023-05-08T20:00:35.320Z,11.94
2023-05-08T20:03:02.057Z,11.85
2023-05-08T20:05:28.706Z,11.81
2023-05-08T20:07:55.302Z,11.79
2023-05-08T20:10:22.449Z,11.67
2023-05-08T20:12:49.242Z,11.65
2023-05-08T20:15:15.900Z,11.59
2023-05-08T20:17:42.894Z,11.66
2023-05-08T20:20:10.216Z,11.49
2023-05-08T20:22:37.774Z,11.39
2023-05-08T20:25:05.165Z,11.46
2023-05-08T20:27:32.118Z,11.45
2023-05-08T20:29:58.726Z,11.35
2023-05-08T20:32:25.312Z,11.30
2023-05-08T20:34:51.951Z,11.31
2023-05-08T20:37:18.506Z,11.26
2023-05-08T20:39:45.297Z,11.18
2023-05-08T20:42:11.854Z,11.12
2023-05-08T20:44:38.599Z,11.04
2023-05-08T20:47:05.136Z,10.87
2023-05-08T20:49:31.792Z,10.81
2023-05-08T20:51:58.565Z,10.63
2023-05-08T20:54:25.018Z,10.69
2023-05-08T20:56:51.436Z,10.68
2023-05-08T20:59:18.779Z,10.70
2023-05-08T21:01:46.754Z,10.56
2023-05-08T21:04:13.288Z,10.64
2023-05-08T21:06:39.970Z,10.62
2023-05-08T21:09:07.193Z,10.71
2023-05-08T21:11:33.731Z,10.63
2023-05-08T21:14:00.194Z,10.61
2023-05-08T21:16:27.019Z,10.51
2023-05-08T21:18:55.370Z,10.49
2023-05-08T21:21:23.254Z,10.44
2023-05-08T21:23:49.679Z,10.30
2023-05-08T21:26:16.177Z,10.21
2023-05-08T21:28:42.625Z,10.06
2023-05-08T21:31:09.280Z,10.24
2023-05-08T21:33:36.531Z,10.17
2023-05-08T21:36:03.160Z,10.21
2023-05-08T21:38:29.783Z,10.14
2023-05-08T21:40:56.476Z,10.01
2023-05-08T21:43:22.985Z,9.90
2023-05-08T21:45:49.355Z,9.76
2023-05-08T21:48:15.870Z,9.66
2023-05-08T21:50:42.334Z,9.56
2023-05-08T21:53:08.798Z,9.44
2023-05-08T21:55:35.498Z,9.34
2023-05-08T21:58:01.991Z,9.31
2023-05-08T22:00:28.864Z,9.21
2023-05-08T22:02:55.738Z,9.25
2023-05-08T22:05:24.423Z,9.14
2023-05-08T22:07:51.055Z,8.96
2023-05-08T22:10:17.622Z,8.83
2023-05-08T22:12:44.198Z,8.78
2023-05-08T22:15:25.505Z,8.71
2023-05-08T22:17:55.970Z,8.61
2023-05-08T22:20:22.779Z,8.53
2023-05-08T22:22:49.313Z,8.49
2023-05-08T22:25:16.162Z,8.40
2023-05-08T22:27:42.800Z,8.46
2023-05-08T22:30:09.507Z,8.46
2023-05-08T22:32:36.617Z,8.45
2023-05-08T22:35:03.137Z,8.55
2023-05-08T22:37:30.474Z,8.43
2023-05-08T22:39:56.966Z,8.50
2023-05-08T22:42:24.008Z,8.71
2023-05-08T22:44:50.667Z,8.81
2023-05-08T22:47:17.317Z,8.72
2023-05-08T22:49:43.841Z,8.89
2023-05-08T22:52:10.411Z,8.81
2023-05-08T22:54:37.005Z,8.96
2023-05-08T22:57:03.903Z,8.76
2023-05-08T22:59:30.575Z,8.69
2023-05-08T23:01:56.974Z,8.65
2023-05-08T23:04:23.407Z,8.58
2023-05-08T23:06:49.979Z,8.59
2023-05-08T23:09:16.553Z,8.59
2023-05-08T23:11:43.036Z,8.66
2023-05-08T23:14:09.583Z,8.81
2023-05-08T23:16:36.672Z,8.72
2023-05-08T23:19:04.648Z,8.76
2023-05-08T23:21:32.213Z,8.77
2023-05-08T23:23:59.549Z,8.83
2023-05-08T23:26:26.429Z,8.88
2023-05-08T23:28:53.111Z,9.07
2023-05-08T23:31:19.815Z,9.16
2023-05-08T23:33:46.458Z,9.39
2023-05-08T23:36:13.371Z,9.39
2023-05-08T23:38:40.571Z,9.31
2023-05-08T23:41:07.788Z,9.30
2023-05-08T23:43:34.218Z,9.31
2023-05-08T23:46:00.759Z,9.38
2023-05-08T23:48:27.707Z,9.39
2023-05-08T23:50:54.206Z,9.36
2023-05-08T23:53:21.155Z,9.38
2023-05-08T23:55:52.508Z,9.32
2023-05-08T23:58:19.030Z,9.52
